Time;durP1;ratioP1;P1;durP2;ratioP2;P2;SDS_P1;SDS_P2;PMS_P1;PMS_P2;Temp;Humidity;BMP_temperature;BMP_pressure;BME280_temperature;BME280_humidity;BME280_pressure;Samples;Min_cycle;Max_cycle;Signal;HPM_P1;HPM_P2
2022/05/29 00:01:52;;;;;;;;;3.00;2.00;;;;;11.73;100.00;101515.38;6260721;22;45190;-89
2022/05/29 00:04:19;;;;;;;;;1.50;1.50;;;;;11.73;100.00;101511.84;6260250;22;45230;-90
2022/05/29 00:06:49;;;;;;;;;3.25;2.75;;;;;11.71;100.00;101511.09;6286092;22;45196;-91
2022/05/29 00:09:19;;;;;;;;;3.20;2.00;;;;;11.68;100.00;101503.28;6259804;22;44571;-91
2022/05/29 00:11:46;;;;;;;;;4.40;2.80;;;;;11.65;100.00;101498.13;6260173;22;44635;-90
2022/05/29 00:14:24;;;;;;;;;1.50;1.00;;;;;11.67;100.00;101501.56;6269165;22;45537;-89
2022/05/29 00:16:50;;;;;;;;;2.00;2.00;;;;;11.68;100.00;101497.97;6292225;22;45185;-90
2022/05/29 00:19:17;;;;;;;;;2.00;2.00;;;;;11.66;100.00;101497.22;6263725;22;44741;-89
2022/05/29 00:21:43;;;;;;;;;2.00;2.00;;;;;11.62;100.00;101496.53;6266610;22;44684;-88
2022/05/29 00:24:09;;;;;;;;;3.00;3.00;;;;;11.62;100.00;101495.66;6296698;22;44857;-87
2022/05/29 00:26:36;;;;;;;;;2.75;2.75;;;;;11.62;100.00;101498.34;6295354;22;44935;-89
2022/05/29 00:29:02;;;;;;;;;4.00;3.00;;;;;11.58;100.00;101502.97;6267028;22;44643;-89
2022/05/29 00:31:27;;;;;;;;;2.75;2.75;;;;;11.56;100.00;101496.91;6267074;22;44575;-89
2022/05/29 00:33:53;;;;;;;;;4.75;2.00;;;;;11.47;100.00;101500.09;6259089;22;45205;-85
2022/05/29 00:36:19;;;;;;;;;3.00;3.00;;;;;11.44;100.00;101486.97;6290033;22;45160;-90
2022/05/29 00:38:47;;;;;;;;;2.50;2.50;;;;;11.42;100.00;101484.41;6295317;22;45124;-88
2022/05/29 00:41:22;;;;;;;;;2.25;1.75;;;;;11.43;100.00;101485.25;6272494;22;44729;-88
2022/05/29 00:44:27;;;;;;;;;2.00;2.00;;;;;11.36;100.00;101489.19;6272438;22;44856;-89
2022/05/29 00:47:06;;;;;;;;;4.75;2.25;;;;;11.33;100.00;101493.75;6300905;22;45218;-90
2022/05/29 00:49:34;;;;;;;;;2.00;2.00;;;;;11.31;100.00;101492.13;6277142;22;44595;-90
2022/05/29 00:52:18;;;;;;;;;3.00;2.00;;;;;11.21;100.00;101486.47;6271591;22;44709;-86
2022/05/29 00:54:53;;;;;;;;;4.50;3.25;;;;;11.20;100.00;101492.75;6302313;22;44584;-88
2022/05/29 00:57:25;;;;;;;;;4.00;2.00;;;;;11.19;100.00;101495.50;6275944;22;45351;-89
2022/05/29 00:59:53;;;;;;;;;5.50;2.25;;;;;11.16;100.00;101498.31;6303738;22;44665;-90
2022/05/29 01:02:19;;;;;;;;;2.25;1.50;;;;;11.09;100.00;101487.19;6303095;22;44717;-86
2022/05/29 01:04:45;;;;;;;;;2.25;2.25;;;;;10.98;100.00;101490.47;6298755;22;44800;-85
2022/05/29 01:07:14;;;;;;;;;4.50;3.25;;;;;10.93;100.00;101481.03;6296838;22;45293;-85
2022/05/29 01:09:42;;;;;;;;;3.00;3.00;;;;;10.96;100.00;101476.38;6263318;22;44730;-84
2022/05/29 01:12:46;;;;;;;;;8.75;8.50;;;;;10.94;100.00;101475.63;6293997;22;44744;-88
2022/05/29 01:15:29;;;;;;;;;3.00;2.25;;;;;10.89;100.00;101477.69;6295278;22;44615;-86
2022/05/29 01:18:11;;;;;;;;;2.50;2.50;;;;;10.91;100.00;101474.94;6288037;22;46291;-86
2022/05/29 01:21:08;;;;;;;;;2.20;2.20;;;;;10.86;100.00;101479.66;6284271;22;44657;-86
2022/05/29 01:24:19;;;;;;;;;4.00;2.00;;;;;10.71;100.00;101479.56;6289654;22;44712;-86
2022/05/29 01:27:13;;;;;;;;;3.25;3.00;;;;;10.68;100.00;101470.91;6289380;22;44803;-87
2022/05/29 01:30:01;;;;;;;;;2.75;2.75;;;;;10.67;100.00;101490.47;6291302;22;45297;-87
2022/05/29 01:32:33;;;;;;;;;2.00;2.00;;;;;10.66;100.00;101460.38;6285981;22;44722;-87
2022/05/29 01:35:09;;;;;;;;;4.25;2.25;;;;;10.62;100.00;101455.31;6280949;22;45338;-86
2022/05/29 01:37:48;;;;;;;;;2.25;1.00;;;;;10.51;100.00;101454.09;6272811;22;44900;-87
2022/05/29 01:40:46;;;;;;;;;3.00;3.00;;;;;10.52;100.00;101460.28;6273460;22;47442;-86
2022/05/29 01:43:57;;;;;;;;;4.50;3.00;;;;;10.40;100.00;101466.28;6202904;23;44653;-86
2022/05/29 01:46:27;;;;;;;;;4.80;1.00;;;;;10.42;100.00;101473.19;6185196;22;44845;-88
2022/05/29 01:49:15;;;;;;;;;3.00;3.00;;;;;10.39;100.00;101457.44;6182763;22;44843;-87
2022/05/29 01:51:56;;;;;;;;;2.25;2.25;;;;;10.42;100.00;101457.28;6184668;22;46633;-88
2022/05/29 01:54:32;;;;;;;;;3.75;3.75;;;;;10.39;100.00;101454.78;6208097;22;44813;-88
2022/05/29 01:57:27;;;;;;;;;2.00;2.00;;;;;10.39;100.00;101460.06;6186929;22;44842;-89
2022/05/29 02:00:05;;;;;;;;;3.25;2.75;;;;;10.35;100.00;101449.72;6182607;23;44838;-86
2022/05/29 02:02:44;;;;;;;;;3.00;3.00;;;;;10.33;100.00;101452.44;6186419;22;45268;-88
2022/05/29 02:05:17;;;;;;;;;3.00;3.00;;;;;10.31;100.00;101453.50;6211080;22;44692;-88
2022/05/29 02:07:50;;;;;;;;;4.50;3.75;;;;;10.24;100.00;101447.63;6203422;23;44783;-90
2022/05/29 02:10:37;;;;;;;;;1.00;1.00;;;;;10.23;100.00;101448.56;6198674;23;44803;-88
2022/05/29 02:13:33;;;;;;;;;3.75;3.25;;;;;10.21;100.00;101450.44;6196437;23;45341;-89
2022/05/29 02:16:14;;;;;;;;;3.20;3.00;;;;;10.17;100.00;101447.09;6198479;23;44694;-89
2022/05/29 02:18:53;;;;;;;;;2.25;1.25;;;;;10.16;100.00;101450.69;6198698;23;44652;-91
2022/05/29 02:21:39;;;;;;;;;6.50;4.50;;;;;10.16;100.00;101447.19;6267384;22;44761;-89
2022/05/29 02:24:11;;;;;;;;;4.25;4.00;;;;;10.09;100.00;101443.13;6293076;22;45047;-89
2022/05/29 02:26:46;;;;;;;;;4.50;3.00;;;;;10.05;100.00;101448.59;6264178;22;45290;-91
2022/05/29 02:29:13;;;;;;;;;2.25;2.25;;;;;10.02;100.00;101443.47;6285893;22;44738;-89
2022/05/29 02:31:38;;;;;;;;;3.00;3.00;;;;;10.00;100.00;101445.31;6289149;22;44917;-89
2022/05/29 02:34:18;;;;;;;;;5.00;3.00;;;;;9.97;100.00;101431.38;6263795;22;46412;-88
2022/05/29 02:36:58;;;;;;;;;6.00;3.00;;;;;9.96;100.00;101434.94;6267652;22;44717;-90
2022/05/29 02:40:10;;;;;;;;;3.75;3.75;;;;;9.96;100.00;101438.50;6240692;22;44639;-89
2022/05/29 02:42:57;;;;;;;;;3.25;3.25;;;;;9.90;100.00;101433.47;6244061;22;44797;-89
2022/05/29 02:45:38;;;;;;;;;4.25;1.75;;;;;9.90;100.00;101441.44;6254833;22;47167;-90
2022/05/29 02:48:35;;;;;;;;;2.50;2.50;;;;;9.84;100.00;101446.22;6284846;22;45439;-85
2022/05/29 02:51:24;;;;;;;;;3.00;2.00;;;;;9.85;100.00;101424.91;6293661;22;45238;-89
2022/05/29 02:53:51;;;;;;;;;5.00;3.00;;;;;9.73;100.00;101429.06;6288113;22;44712;-89
2022/05/29 02:56:16;;;;;;;;;3.25;3.25;;;;;9.73;100.00;101429.06;6258834;22;46536;-91
2022/05/29 02:58:47;;;;;;;;;4.50;4.25;;;;;9.71;100.00;101430.94;6281543;22;45262;-88
2022/05/29 03:01:16;;;;;;;;;2.00;2.00;;;;;9.68;100.00;101425.81;6254707;22;44697;-89
2022/05/29 03:03:44;;;;;;;;;3.75;3.75;;;;;9.66;100.00;101429.47;6280771;22;45219;-89
2022/05/29 03:06:34;;;;;;;;;2.25;2.25;;;;;9.64;100.00;101429.56;6285510;22;45287;-90
2022/05/29 03:09:25;;;;;;;;;7.00;3.75;;;;;9.56;100.00;101438.84;6250491;22;44801;-85
2022/05/29 03:11:50;;;;;;;;;5.00;5.00;;;;;9.54;100.00;101420.34;6275993;22;45357;-86
2022/05/29 03:14:34;;;;;;;;;5.50;4.00;;;;;9.52;100.00;101432.81;6282432;22;44713;-88
2022/05/29 03:17:27;;;;;;;;;3.00;3.00;;;;;9.55;100.00;101426.53;6285400;22;45415;-91
2022/05/29 03:20:24;;;;;;;;;1.00;1.00;;;;;9.51;100.00;101425.81;6164553;23;44686;-86
2022/05/29 03:23:06;;;;;;;;;4.50;3.00;;;;;9.53;100.00;101421.31;6152002;23;44652;-90
2022/05/29 03:25:44;;;;;;;;;3.25;3.00;;;;;9.51;100.00;101405.44;6175569;23;44917;-91
2022/05/29 03:28:19;;;;;;;;;0.25;0.25;;;;;9.51;100.00;101405.44;6174245;23;45087;-88
2022/05/29 03:30:48;;;;;;;;;4.75;3.50;;;;;9.46;100.00;101420.75;6143724;23;44691;-88
2022/05/29 03:33:14;;;;;;;;;4.00;4.00;;;;;9.45;100.00;101427.00;6166517;23;44783;-88
2022/05/29 03:36:03;;;;;;;;;2.25;1.25;;;;;9.42;100.00;101418.31;6143817;23;44838;-89
2022/05/29 03:38:29;;;;;;;;;5.00;2.00;;;;;9.44;100.00;101417.31;6165699;23;45869;-90
2022/05/29 03:40:55;;;;;;;;;8.50;8.50;;;;;9.46;100.00;101414.59;6167557;23;44920;-89
2022/05/29 03:43:21;;;;;;;;;8.00;6.75;;;;;9.45;100.00;101419.03;6170060;23;44792;-88
2022/05/29 03:45:46;;;;;;;;;5.75;4.75;;;;;9.44;100.00;101412.03;6168785;23;44895;-89
2022/05/29 03:48:12;;;;;;;;;6.00;4.00;;;;;9.45;100.00;101404.91;6167518;23;45788;-88
2022/05/29 03:50:37;;;;;;;;;6.50;6.00;;;;;9.46;100.00;101404.81;6170534;23;44742;-90
2022/05/29 03:53:04;;;;;;;;;9.00;5.00;;;;;9.43;100.00;101404.16;6145635;23;44672;-89
2022/05/29 03:55:30;;;;;;;;;5.25;4.50;;;;;9.35;100.00;101404.53;6162479;23;44775;-88
2022/05/29 03:57:56;;;;;;;;;6.25;5.25;;;;;9.34;100.00;101408.13;6224395;22;46875;-89
2022/05/29 04:00:23;;;;;;;;;5.00;5.00;;;;;9.35;100.00;101412.50;6285693;22;44575;-89
2022/05/29 04:02:50;;;;;;;;;3.50;3.50;;;;;9.33;100.00;101409.06;6263660;22;44715;-91
2022/05/29 04:14:06;;;;;;;;;4.75;4.75;;;;;9.49;100.00;101410.00;6292081;22;44583;-89
2022/05/29 04:16:33;;;;;;;;;2.50;2.50;;;;;9.55;100.00;101410.59;6291795;22;44721;-89
2022/05/29 04:18:59;;;;;;;;;6.00;3.00;;;;;9.61;100.00;101408.47;6267621;22;45087;-89
2022/05/29 04:21:24;;;;;;;;;3.75;2.00;;;;;9.68;100.00;101411.69;6299769;22;45092;-90
2022/05/29 04:23:50;;;;;;;;;5.00;5.00;;;;;9.75;100.00;101407.75;6272681;22;44913;-89
2022/05/29 04:26:16;;;;;;;;;2.25;2.25;;;;;9.87;100.00;101409.78;6298632;22;44837;-88
2022/05/29 04:28:44;;;;;;;;;5.50;4.00;;;;;9.93;100.00;101419.22;6297728;22;45075;-88
2022/05/29 04:31:09;;;;;;;;;4.00;4.00;;;;;10.03;100.00;101409.81;6248673;22;44714;-90
2022/05/29 04:33:35;;;;;;;;;4.25;4.00;;;;;10.16;100.00;101412.66;6273958;22;44576;-89
2022/05/29 04:36:01;;;;;;;;;4.00;4.00;;;;;10.30;100.00;101412.81;6300963;22;44709;-89
2022/05/29 04:38:27;;;;;;;;;4.00;4.00;;;;;10.34;100.00;101406.34;6237517;22;45175;-90
2022/05/29 04:40:58;;;;;;;;;6.00;4.00;;;;;10.40;100.00;101394.56;6292311;22;44552;-90
2022/05/29 04:43:24;;;;;;;;;5.00;4.00;;;;;10.50;100.00;101398.41;6264459;22;44658;-89
2022/05/29 04:45:54;;;;;;;;;5.75;5.75;;;;;10.57;100.00;101396.25;6261004;22;44821;-90
2022/05/29 04:48:20;;;;;;;;;6.00;5.50;;;;;10.68;100.00;101407.13;6294669;22;44923;-90
2022/05/29 04:50:46;;;;;;;;;7.20;5.80;;;;;10.81;100.00;101402.84;6293836;22;44733;-92
2022/05/29 04:53:11;;;;;;;;;4.00;3.50;;;;;10.86;100.00;101410.56;6271428;22;44821;-91
2022/05/29 04:55:42;;;;;;;;;4.75;4.00;;;;;10.89;100.00;101403.25;6303952;22;44736;-89
2022/05/29 04:58:09;;;;;;;;;3.25;3.25;;;;;10.93;100.00;101409.28;6278344;22;45038;-89
2022/05/29 05:00:35;;;;;;;;;3.75;3.75;;;;;10.80;100.00;101401.97;6276833;22;44717;-90
2022/05/29 05:03:02;;;;;;;;;7.50;6.50;;;;;10.79;100.00;101410.06;6278044;22;44713;-90
2022/05/29 05:05:29;;;;;;;;;5.75;3.75;;;;;10.83;100.00;101408.94;6277568;22;44830;-89
2022/05/29 05:07:55;;;;;;;;;3.00;3.00;;;;;10.89;100.00;101405.06;6271995;22;46601;-90
2022/05/29 05:10:23;;;;;;;;;4.00;4.00;;;;;10.96;100.00;101401.09;6299922;22;44559;-89
2022/05/29 05:12:51;;;;;;;;;7.75;7.25;;;;;11.00;100.00;101411.47;6274440;22;44585;-89
2022/05/29 05:15:17;;;;;;;;;7.00;6.50;;;;;11.16;100.00;101403.44;6274243;22;44824;-89
2022/05/29 05:17:43;;;;;;;;;8.00;5.00;;;;;11.31;100.00;101407.00;6248607;22;45021;-90
2022/05/29 05:20:10;;;;;;;;;4.75;4.75;;;;;11.41;100.00;101399.34;6301541;22;44641;-90
2022/05/29 05:22:35;;;;;;;;;7.60;5.80;;;;;11.66;100.00;101402.25;6271629;22;44569;-89
2022/05/29 05:25:01;;;;;;;;;5.50;3.75;;;;;11.71;100.00;101409.94;6297130;22;44746;-89
2022/05/29 05:27:29;;;;;;;;;5.75;3.25;;;;;11.53;100.00;101409.25;6298263;22;45127;-90
2022/05/29 05:29:55;;;;;;;;;3.80;3.80;;;;;11.53;100.00;101407.44;6259674;22;45180;-90
2022/05/29 05:32:21;;;;;;;;;4.50;3.00;;;;;11.45;100.00;101412.34;6286187;22;44742;-89
2022/05/29 05:34:46;;;;;;;;;7.25;6.00;;;;;11.37;100.00;101405.81;6283623;22;44690;-87
2022/05/29 05:37:13;;;;;;;;;3.75;3.00;;;;;11.42;100.00;101409.06;6281510;22;46106;-90
2022/05/29 05:39:39;;;;;;;;;5.00;3.20;;;;;11.43;100.00;101406.28;6254027;22;44661;-91
2022/05/29 05:42:06;;;;;;;;;5.00;3.80;;;;;11.31;100.00;101402.56;6251776;22;44706;-86
2022/05/29 05:44:33;;;;;;;;;5.75;5.25;;;;;11.47;100.00;101405.16;6296406;22;44766;-89
2022/05/29 05:46:59;;;;;;;;;3.00;2.00;;;;;11.39;100.00;101407.41;6294210;22;45245;-86
2022/05/29 05:49:25;;;;;;;;;8.50;2.25;;;;;11.44;100.00;101413.31;6290135;22;44614;-87
2022/05/29 05:51:51;;;;;;;;;4.80;4.80;;;;;11.62;100.00;101405.19;6262091;22;44784;-90
2022/05/29 05:54:20;;;;;;;;;7.25;5.75;;;;;11.79;100.00;101394.34;6292622;22;44882;-90
2022/05/29 05:56:52;;;;;;;;;6.80;4.40;;;;;11.81;100.00;101406.63;6297137;22;45162;-89
2022/05/29 05:59:18;;;;;;;;;2.60;2.60;;;;;11.91;100.00;101401.63;6296979;22;44713;-91
2022/05/29 06:01:44;;;;;;;;;4.60;3.00;;;;;12.03;100.00;101400.00;6267922;22;44688;-91
2022/05/29 06:04:10;;;;;;;;;5.00;3.00;;;;;12.21;100.00;101406.00;6294214;22;44870;-91
2022/05/29 06:06:38;;;;;;;;;3.40;3.40;;;;;12.20;100.00;101407.78;6295610;22;45051;-90
2022/05/29 06:09:04;;;;;;;;;5.60;5.60;;;;;12.38;100.00;101403.13;6239195;22;44604;-90
2022/05/29 06:11:33;;;;;;;;;2.25;1.00;;;;;12.47;100.00;101402.50;6295103;22;44663;-90
2022/05/29 06:13:58;;;;;;;;;3.75;2.50;;;;;12.42;100.00;101409.09;6292967;22;44756;-88
2022/05/29 06:16:26;;;;;;;;;3.75;1.00;;;;;12.43;100.00;101395.69;6265852;22;45279;-90
2022/05/29 06:18:51;;;;;;;;;3.20;2.40;;;;;12.45;100.00;101391.09;6293696;22;44599;-90
2022/05/29 06:21:17;;;;;;;;;3.25;1.25;;;;;12.58;100.00;101392.03;6268458;22;44591;-91
2022/05/29 06:23:43;;;;;;;;;6.00;2.00;;;;;12.54;100.00;101390.50;6262237;22;44881;-92
2022/05/29 06:26:12;;;;;;;;;8.50;5.25;;;;;12.64;100.00;101379.25;6260411;22;45317;-91
2022/05/29 06:28:38;;;;;;;;;4.60;3.80;;;;;12.68;100.00;101394.09;6293110;22;44731;-87
2022/05/29 06:31:06;;;;;;;;;2.00;1.20;;;;;12.88;100.00;101390.13;6289681;22;44720;-91
2022/05/29 06:33:31;;;;;;;;;4.00;3.00;;;;;12.63;100.00;101391.72;6282798;22;45144;-87
2022/05/29 06:36:23;;;;;;;;;4.00;2.00;;;;;12.96;100.00;101386.00;6284667;22;45321;-90
2022/05/29 06:38:50;;;;;;;;;1.40;1.40;;;;;13.30;100.00;101386.44;6257525;22;44706;-90
2022/05/29 06:41:17;;;;;;;;;5.80;5.80;;;;;13.10;100.00;101380.59;6254023;22;44576;-90
2022/05/29 06:43:43;;;;;;;;;6.80;2.80;;;;;13.21;100.00;101389.69;6258467;22;44824;-90
2022/05/29 06:46:11;;;;;;;;;2.00;2.00;;;;;13.34;100.00;101396.78;6285551;22;44924;-90
2022/05/29 06:48:40;;;;;;;;;3.00;3.00;;;;;13.41;100.00;101396.38;6263787;22;44818;-89
2022/05/29 06:51:11;;;;;;;;;2.40;1.20;;;;;13.33;100.00;101395.06;6266981;22;44632;-89
2022/05/29 06:53:38;;;;;;;;;4.25;2.00;;;;;13.61;100.00;101402.03;6275906;22;44895;-91
2022/05/29 06:56:05;;;;;;;;;4.00;3.00;;;;;13.63;100.00;101405.47;6297990;22;45203;-90
2022/05/29 06:58:32;;;;;;;;;1.20;1.00;;;;;13.83;100.00;101389.88;6265569;22;45097;-90
2022/05/29 07:09:19;;;;;;;;;3.40;2.00;;;;;13.71;100.00;101386.22;6266654;22;44637;-90
2022/05/29 07:11:48;;;;;;;;;3.25;2.00;;;;;13.97;100.00;101388.88;6267999;22;44623;-90
2022/05/29 07:14:15;;;;;;;;;3.60;2.20;;;;;14.12;100.00;101375.31;6269291;22;44882;-90
2022/05/29 07:16:41;;;;;;;;;1.80;1.00;;;;;14.00;100.00;101384.19;6270393;22;45414;-89
2022/05/29 07:19:07;;;;;;;;;2.25;2.00;;;;;14.33;100.00;101372.03;6266651;22;44703;-90
2022/05/29 07:21:39;;;;;;;;;3.00;2.00;;;;;14.33;100.00;101386.25;6293102;22;44645;-91
2022/05/29 07:24:06;;;;;;;;;0.80;0.00;;;;;14.56;100.00;101376.59;6294885;22;44647;-90
2022/05/29 07:26:31;;;;;;;;;3.00;0.80;;;;;14.61;100.00;101387.81;6290412;22;45057;-90
2022/05/29 07:28:57;;;;;;;;;1.80;1.80;;;;;14.48;100.00;101388.81;6294451;22;44714;-90
2022/05/29 07:31:23;;;;;;;;;0.75;0.75;;;;;14.44;100.00;101385.47;6264845;22;44724;-91
2022/05/29 07:33:51;;;;;;;;;3.50;2.00;;;;;14.41;100.00;101375.03;6265726;22;44857;-90
2022/05/29 07:36:21;;;;;;;;;1.80;1.00;;;;;14.35;100.00;101386.13;6290231;22;44956;-91
2022/05/29 07:38:47;;;;;;;;;3.20;0.60;;;;;14.22;100.00;101388.88;6282484;22;45302;-93
2022/05/29 07:43:57;;;;;;;;;0.00;0.00;;;;;14.13;100.00;101377.00;6287822;22;44705;-90
2022/05/29 07:46:23;;;;;;;;;1.40;1.40;;;;;13.96;100.00;101376.50;6259139;22;45264;-87
2022/05/29 07:48:49;;;;;;;;;1.00;1.00;;;;;14.11;100.00;101391.44;6299448;22;44697;-89
2022/05/29 07:51:15;;;;;;;;;1.25;1.25;;;;;14.15;100.00;101379.56;6272353;22;44693;-91
2022/05/29 07:53:42;;;;;;;;;1.75;1.00;;;;;14.37;100.00;101373.53;6293714;22;44876;-91
2022/05/29 07:56:07;;;;;;;;;0.00;0.00;;;;;14.58;99.20;101376.47;6263419;22;45106;-89
2022/05/29 07:58:33;;;;;;;;;1.00;1.00;;;;;14.89;100.00;101369.69;6260661;22;44863;-91
2022/05/29 08:01:01;;;;;;;;;2.60;2.00;;;;;14.81;97.69;101390.84;6261196;22;44797;-90
2022/05/29 08:03:30;;;;;;;;;1.00;1.00;;;;;14.43;94.30;101386.44;6262714;22;44792;-89
2022/05/29 08:05:57;;;;;;;;;0.00;0.00;;;;;14.21;88.50;101386.28;6267503;22;45134;-91
2022/05/29 08:08:23;;;;;;;;;2.00;1.25;;;;;14.41;93.87;101375.03;6242960;22;44582;-92
2022/05/29 08:10:48;;;;;;;;;2.25;1.00;;;;;14.47;94.55;101371.91;6266893;22;44557;-90
2022/05/29 08:13:14;;;;;;;;;3.00;1.50;;;;;14.67;94.61;101370.47;6261642;22;44894;-91
2022/05/29 08:15:41;;;;;;;;;2.40;1.00;;;;;14.78;89.92;101361.63;6283533;22;46333;-89
2022/05/29 08:18:09;;;;;;;;;3.20;1.20;;;;;14.88;90.17;101366.16;6287857;22;44734;-90
2022/05/29 08:20:38;;;;;;;;;4.00;2.00;;;;;14.96;89.71;101364.75;6293856;22;44654;-90
2022/05/29 08:23:05;;;;;;;;;3.00;2.00;;;;;15.52;90.88;101362.22;6295918;22;44812;-91
2022/05/29 08:31:02;;;;;;;;;2.00;0.60;;;;;15.55;79.39;101353.97;6268068;22;44816;-93
2022/05/29 08:33:30;;;;;;;;;1.00;1.00;;;;;15.41;78.68;101360.38;6267004;22;44939;-89
2022/05/29 08:36:06;;;;;;;;;0.00;0.00;;;;;15.19;78.87;101358.53;6298638;22;45081;-91
2022/05/29 08:38:35;;;;;;;;;1.00;1.00;;;;;14.89;84.60;101359.00;6296357;22;44582;-91
2022/05/29 08:41:05;;;;;;;;;2.00;0.40;;;;;14.62;87.27;101351.22;6289838;22;44717;-89
2022/05/29 08:43:37;;;;;;;;;1.00;1.00;;;;;14.49;87.61;101350.41;6280601;22;45156;-87
2022/05/29 08:46:14;;;;;;;;;2.40;2.00;;;;;14.32;93.47;101346.28;6281329;22;45507;-90
2022/05/29 08:48:40;;;;;;;;;0.80;0.80;;;;;14.10;96.05;101353.16;6261209;22;44793;-91
2022/05/29 08:51:11;;;;;;;;;0.60;0.00;;;;;14.03;96.69;101349.25;6296100;22;44666;-91
2022/05/29 08:54:18;;;;;;;;;2.00;2.00;;;;;14.08;96.61;101351.59;6272436;22;44854;-91
2022/05/29 08:57:11;;;;;;;;;3.60;2.00;;;;;13.86;98.43;101345.09;6294070;22;45176;-87
2022/05/29 08:59:42;;;;;;;;;0.00;0.00;;;;;14.02;98.94;101336.84;6286909;22;44670;-88
2022/05/29 09:02:16;;;;;;;;;3.40;1.20;;;;;14.14;96.11;101357.34;6288960;22;44734;-88
2022/05/29 09:04:47;;;;;;;;;1.00;1.00;;;;;14.15;96.10;101344.81;6259729;22;44924;-91
2022/05/29 09:07:17;;;;;;;;;1.40;1.40;;;;;14.51;97.87;101345.81;6231152;22;46142;-91
2022/05/29 09:09:59;;;;;;;;;6.60;1.20;;;;;14.78;92.75;101348.25;6257226;22;44638;-90
2022/05/29 09:12:31;;;;;;;;;0.80;0.80;;;;;15.02;91.69;101341.06;6289612;22;44750;-93
2022/05/29 09:15:12;;;;;;;;;1.00;1.00;;;;;15.33;87.40;101334.22;6256067;22;44799;-90
2022/05/29 09:17:51;;;;;;;;;2.20;1.00;;;;;15.52;85.66;101324.72;6282237;22;45174;-90
2022/05/29 09:20:32;;;;;;;;;3.80;1.80;;;;;15.57;84.64;101319.88;6291434;22;45371;-92
2022/05/29 09:23:25;;;;;;;;;0.80;0.80;;;;;15.78;79.34;101322.72;6273633;22;44567;-90
2022/05/29 09:25:54;;;;;;;;;0.00;0.00;;;;;16.11;83.85;101309.31;6276662;22;44884;-92
2022/05/29 09:28:35;;;;;;;;;0.00;0.00;;;;;16.07;74.20;101307.00;6298754;22;45000;-91
2022/05/29 09:31:03;;;;;;;;;0.00;0.00;;;;;16.19;76.92;101320.22;6293626;22;44661;-92
2022/05/29 09:33:29;;;;;;;;;0.00;0.00;;;;;15.86;68.48;101328.34;6267106;22;44761;-92
2022/05/29 09:36:05;;;;;;;;;0.80;0.80;;;;;15.64;65.03;101321.97;6301110;22;44761;-87
2022/05/29 09:38:44;;;;;;;;;0.00;0.00;;;;;15.56;68.79;101324.38;6273402;22;47208;-89
2022/05/29 09:41:10;;;;;;;;;1.20;1.20;;;;;15.02;61.93;101329.50;6275465;22;44686;-88
2022/05/29 09:43:36;;;;;;;;;0.75;0.75;;;;;15.26;65.97;101311.56;6301956;22;44691;-90
2022/05/29 09:46:22;;;;;;;;;0.80;0.80;;;;;15.55;66.99;101313.78;6300262;22;44722;-88
2022/05/29 09:52:00;;;;;;;;;0.60;0.00;;;;;16.12;69.27;101308.31;6304124;22;44559;-90
2022/05/29 09:54:34;;;;;;;;;1.00;1.00;;;;;16.19;62.82;101305.97;6302282;22;44628;-90
2022/05/29 09:57:27;;;;;;;;;2.00;0.80;;;;;15.98;62.84;101291.66;6295775;22;44709;-89
2022/05/29 10:00:08;;;;;;;;;0.00;0.00;;;;;16.48;58.75;101290.19;6296960;22;45093;-90
2022/05/29 10:02:39;;;;;;;;;0.40;0.40;;;;;16.61;53.42;101292.69;6292868;22;44571;-91
2022/05/29 10:05:09;;;;;;;;;0.20;0.20;;;;;16.81;52.57;101291.06;6301948;22;44778;-90
2022/05/29 10:07:45;;;;;;;;;0.20;0.20;;;;;17.04;52.22;101283.75;6269247;22;44679;-90
2022/05/29 10:10:24;;;;;;;;;1.00;1.00;;;;;17.13;54.22;101289.19;6299622;22;46644;-92
2022/05/29 10:12:51;;;;;;;;;1.80;1.00;;;;;16.96;58.23;101289.75;6298637;22;44681;-89
2022/05/29 10:15:25;;;;;;;;;1.00;1.00;;;;;16.47;62.32;101301.88;6294413;22;44623;-87
2022/05/29 10:18:01;;;;;;;;;1.00;1.00;;;;;15.99;67.10;101298.72;6292588;22;44730;-91
2022/05/29 10:20:44;;;;;;;;;2.00;0.60;;;;;15.64;71.36;101284.47;6297375;22;45318;-88
2022/05/29 10:23:13;;;;;;;;;1.00;1.00;;;;;15.64;72.62;101295.19;6292717;22;44813;-89
2022/05/29 10:25:59;;;;;;;;;0.40;0.40;;;;;15.48;73.96;101286.66;6265491;22;44646;-90
2022/05/29 10:28:31;;;;;;;;;4.00;1.00;;;;;15.90;70.76;101278.84;6292493;22;44575;-92
2022/05/29 10:31:00;;;;;;;;;2.80;1.00;;;;;15.88;71.81;101287.03;6285105;22;45242;-92
2022/05/29 10:33:29;;;;;;;;;3.00;1.00;;;;;15.75;71.66;101280.09;6293001;22;44886;-90
2022/05/29 10:36:09;;;;;;;;;0.00;0.00;;;;;15.65;70.73;101271.94;6295175;22;44713;-91
2022/05/29 10:38:36;;;;;;;;;3.00;1.40;;;;;15.74;73.18;101281.94;6290990;22;44808;-91
2022/05/29 10:41:13;;;;;;;;;1.20;1.00;;;;;15.92;72.37;101266.22;6269518;22;47068;-91
2022/05/29 10:43:43;;;;;;;;;1.00;1.00;;;;;15.97;68.28;101281.91;6265417;22;44614;-88
2022/05/29 10:46:19;;;;;;;;;0.00;0.00;;;;;16.04;66.57;101272.38;6291740;22;45317;-87
2022/05/29 10:49:46;;;;;;;;;1.40;1.00;;;;;15.93;69.23;101263.41;6288272;22;44824;-89
2022/05/29 10:52:44;;;;;;;;;1.00;1.00;;;;;15.95;71.39;101263.25;6286757;22;45001;-89
2022/05/29 10:55:19;;;;;;;;;3.00;1.60;;;;;16.10;70.97;101262.03;6203654;22;44703;-90
2022/05/29 10:57:59;;;;;;;;;2.00;0.40;;;;;15.75;71.56;101253.31;6202428;22;44696;-88
2022/05/29 11:00:37;;;;;;;;;1.40;1.00;;;;;15.82;71.31;101254.53;6222982;22;44682;-92
2022/05/29 11:03:56;;;;;;;;;1.00;1.00;;;;;16.05;72.54;101252.63;6199533;22;44966;-90
2022/05/29 11:06:36;;;;;;;;;0.80;0.80;;;;;15.99;73.58;101254.00;6138036;23;44631;-91
2022/05/29 11:09:37;;;;;;;;;2.40;1.00;;;;;16.45;70.00;101264.47;6169865;23;44651;-91
2022/05/29 11:12:29;;;;;;;;;3.80;1.00;;;;;16.56;71.24;101255.53;6053578;23;44805;-89
2022/05/29 11:15:16;;;;;;;;;1.00;1.00;;;;;16.54;65.48;101251.28;6029552;23;45408;-91
2022/05/29 11:17:54;;;;;;;;;0.20;0.20;;;;;16.09;68.10;101241.53;6019694;23;44613;-88
2022/05/29 11:20:45;;;;;;;;;1.20;0.20;;;;;16.10;68.36;101239.72;6043515;23;44657;-88
2022/05/29 11:23:46;;;;;;;;;2.60;1.00;;;;;16.47;63.22;101239.34;6033030;23;45240;-90
2022/05/29 11:26:26;;;;;;;;;6.20;5.80;;;;;16.48;56.59;101247.25;6023058;23;44962;-88
2022/05/29 11:28:51;;;;;;;;;8.00;6.20;;;;;16.23;54.79;101245.78;6028696;23;44575;-88
2022/05/29 11:31:52;;;;;;;;;4.25;3.00;;;;;16.29;54.27;101242.56;6027615;23;44568;-90
2022/05/29 11:34:37;;;;;;;;;3.00;1.20;;;;;16.42;53.09;101237.91;5969251;23;45293;-93
2022/05/29 11:37:35;;;;;;;;;2.00;1.80;;;;;16.30;56.17;101233.56;6020395;23;45091;-91
2022/05/29 11:40:06;;;;;;;;;1.00;1.00;;;;;16.43;53.04;101215.47;5893305;24;44710;-91
2022/05/29 11:42:47;;;;;;;;;2.40;1.00;;;;;16.72;53.09;101206.81;5939578;24;44692;-91
2022/05/29 11:52:30;;;;;;;;;0.60;0.60;;;;;16.94;59.51;101190.56;5953766;23;45341;-92
2022/05/29 11:55:06;;;;;;;;;0.00;0.00;;;;;16.69;59.72;101207.06;5968173;23;44718;-91
2022/05/29 11:57:41;;;;;;;;;1.40;1.40;;;;;16.37;60.07;101207.09;5972547;23;44882;-87
2022/05/29 12:00:21;;;;;;;;;1.80;1.00;;;;;16.39;60.04;101184.53;6001571;23;46640;-92
2022/05/29 12:03:28;;;;;;;;;1.00;1.00;;;;;16.57;60.08;101192.00;6030228;23;44720;-90
2022/05/29 12:06:09;;;;;;;;;2.00;1.00;;;;;16.72;58.61;101182.66;6022151;23;45285;-91
2022/05/29 12:08:56;;;;;;;;;1.60;1.60;;;;;16.84;56.60;101175.41;5998386;23;44742;-92
2022/05/29 12:11:59;;;;;;;;;3.00;2.40;;;;;17.06;53.67;101172.53;6022150;23;45334;-91
2022/05/29 12:18:09;;;;;;;;;1.80;1.80;;;;;17.33;56.33;101173.81;6047257;23;44707;-91
2022/05/29 12:20:50;;;;;;;;;2.60;2.00;;;;;17.34;52.01;101176.34;6037280;23;44794;-89
2022/05/29 12:23:44;;;;;;;;;0.20;0.20;;;;;17.30;48.04;101176.75;6057873;23;45262;-90
2022/05/29 12:26:24;;;;;;;;;1.00;1.00;;;;;17.20;49.49;101169.50;6107558;23;44761;-91
2022/05/29 12:29:10;;;;;;;;;3.40;1.00;;;;;17.20;51.13;101163.28;6084330;23;44616;-92
2022/05/29 12:31:40;;;;;;;;;0.60;0.60;;;;;17.27;47.55;101160.94;6055497;23;44784;-91
2022/05/29 12:34:14;;;;;;;;;3.00;1.20;;;;;17.33;45.80;101160.38;6099213;23;45259;-90